Time;durP1;ratioP1;P1;durP2;ratioP2;P2;SDS_P1;SDS_P2;PMS_P1;PMS_P2;Temp;Humidity;BMP_temperature;BMP_pressure;BME280_temperature;BME280_humidity;BME280_pressure;Samples;Min_cycle;Max_cycle;Signal;HPM_P1;HPM_P2
2023/12/06 00:03:04;;;;;;;2.40;2.10;;;;;;;4.93;100.00;98481.38;7239018;40;20754;31
2023/12/06 00:08:41;;;;;;;2.77;2.10;;;;;;;4.89;100.00;98481.81;7214768;40;21299;31
2023/12/06 00:14:15;;;;;;;2.45;2.20;;;;;;;4.91;100.00;98483.34;7236935;40;20241;31
2023/12/06 00:19:48;;;;;;;3.57;2.17;;;;;;;4.93;100.00;98488.53;7214523;40;20811;31
2023/12/06 00:30:24;;;;;;;3.27;2.97;;;;;;;4.82;100.00;98480.75;7169677;40;20259;31
2023/12/06 00:40:48;;;;;;;3.60;3.10;;;;;;;4.82;100.00;98489.59;7249206;40;20284;31
2023/12/06 00:46:24;;;;;;;3.10;2.80;;;;;;;4.78;100.00;98490.84;7244796;40;20257;31
2023/12/06 00:52:00;;;;;;;3.20;2.90;;;;;;;4.79;100.00;98497.88;7303253;39;20241;31
2023/12/06 00:57:21;;;;;;;3.00;2.70;;;;;;;4.79;100.00;98502.38;7281122;40;20817;31
2023/12/06 01:08:00;;;;;;;3.07;2.77;;;;;;;4.75;100.00;98504.50;7260777;40;20269;31
2023/12/06 01:18:25;;;;;;;3.50;3.20;;;;;;;4.78;100.00;98506.06;7344358;39;20267;31
2023/12/06 01:24:02;;;;;;;4.00;3.37;;;;;;;4.79;100.00;98510.38;7351903;39;20580;31
2023/12/06 01:29:37;;;;;;;4.17;3.50;;;;;;;4.85;100.00;98512.47;7276453;39;20709;31
2023/12/06 01:34:56;;;;;;;3.80;3.40;;;;;;;4.91;100.00;98527.91;7318945;39;20285;31
2023/12/06 01:40:32;;;;;;;3.50;2.80;;;;;;;4.87;100.00;98530.00;7311899;39;20889;31
2023/12/06 01:45:52;;;;;;;3.10;2.80;;;;;;;4.88;100.00;98521.03;7275894;40;20799;31
2023/12/06 01:51:30;;;;;;;3.00;2.70;;;;;;;4.92;100.00;98532.25;7238151;40;20250;31
2023/12/06 01:57:04;;;;;;;3.03;2.63;;;;;;;4.92;100.00;98535.75;7227250;40;20707;31
2023/12/06 02:02:40;;;;;;;4.10;3.47;;;;;;;4.95;100.00;98550.66;7233094;39;20350;31
2023/12/06 02:08:16;;;;;;;3.20;2.80;;;;;;;4.97;100.00;98546.00;7004770;40;21149;31
2023/12/06 02:13:51;;;;;;;3.13;2.60;;;;;;;5.02;100.00;98546.41;7217230;40;20785;31
2023/12/06 02:19:27;;;;;;;2.60;2.10;;;;;;;5.07;100.00;98543.28;7187048;40;20261;31
2023/12/06 02:25:02;;;;;;;2.30;1.90;;;;;;;5.15;100.00;98535.38;7162063;40;20261;31
2023/12/06 02:30:36;;;;;;;1.70;1.50;;;;;;;5.20;100.00;98544.63;7166095;40;20397;31
2023/12/06 02:36:12;;;;;;;2.10;1.70;;;;;;;5.26;100.00;98544.03;7171643;40;20245;31
2023/12/06 02:41:44;;;;;;;1.77;1.47;;;;;;;5.30;100.00;98537.41;7150450;40;20243;31
2023/12/06 02:47:20;;;;;;;2.00;1.60;;;;;;;5.34;100.00;98545.97;7173912;40;20838;31
2023/12/06 02:52:52;;;;;;;3.13;1.70;;;;;;;5.37;100.00;98542.97;7182589;40;20846;31
2023/12/06 02:58:24;;;;;;;2.45;2.20;;;;;;;5.41;100.00;98549.69;7162127;40;20803;31
2023/12/06 03:03:59;;;;;;;2.70;2.13;;;;;;;5.42;100.00;98554.06;7203918;40;20380;31
2023/12/06 03:14:38;;;;;;;2.07;1.73;;;;;;;5.49;100.00;98559.63;7295484;40;20354;31
2023/12/06 03:20:14;;;;;;;2.10;1.90;;;;;;;5.52;100.00;98559.34;7238852;40;20744;31
2023/12/06 03:25:34;;;;;;;2.05;1.70;;;;;;;5.55;100.00;98561.72;7237262;40;20706;31
2023/12/06 03:30:55;;;;;;;2.07;1.80;;;;;;;5.54;100.00;98560.87;7200290;40;20300;31
2023/12/06 03:36:32;;;;;;;2.00;1.80;;;;;;;5.49;100.00;98548.94;7249102;40;20303;31
2023/12/06 03:42:42;;;;;;;2.67;2.30;;;;;;;5.47;100.00;98559.81;7286585;39;20245;31
2023/12/06 03:47:50;;;;;;;2.70;2.23;;;;;;;5.45;100.00;98570.63;7306123;39;20939;31
2023/12/06 03:53:26;;;;;;;3.93;2.33;;;;;;;5.44;100.00;98568.13;7296703;39;20716;31
2023/12/06 03:59:01;;;;;;;2.40;2.20;;;;;;;5.47;100.00;98570.50;7270331;40;20713;31
2023/12/06 04:04:21;;;;;;;2.90;2.60;;;;;;;5.47;100.00;98572.31;7199542;40;20404;31
2023/12/06 04:09:57;;;;;;;3.50;3.20;;;;;;;5.49;100.00;98571.16;7158029;40;20340;31
2023/12/06 04:15:16;;;;;;;3.30;3.00;;;;;;;5.53;100.00;98579.75;7182759;40;20250;31
2023/12/06 04:20:37;;;;;;;2.95;2.65;;;;;;;5.53;100.00;98582.41;7180118;40;20239;31
2023/12/06 04:26:14;;;;;;;2.90;2.65;;;;;;;5.49;100.00;98576.50;7190064;40;20372;31
2023/12/06 04:36:39;;;;;;;3.13;2.63;;;;;;;5.48;100.00;98603.41;7307754;39;20273;31
2023/12/06 04:47:20;;;;;;;4.00;3.47;;;;;;;5.40;100.00;98606.78;7321217;39;20268;31
2023/12/06 04:52:56;;;;;;;4.47;3.83;;;;;;;5.42;99.90;98611.03;7277937;40;20269;31
2023/12/06 05:03:36;;;;;;;4.40;3.70;;;;;;;5.40;99.44;98610.31;7280214;40;21055;31
2023/12/06 05:13:59;;;;;;;5.20;4.57;;;;;;;5.43;98.56;98626.06;7285565;39;20271;31
2023/12/06 05:24:37;;;;;;;6.10;4.95;;;;;;;5.40;98.92;98620.16;7333619;39;20252;31
2023/12/06 05:29:57;;;;;;;5.87;4.77;;;;;;;5.41;98.46;98638.72;7323561;39;20259;31
2023/12/06 05:35:30;;;;;;;6.43;5.33;;;;;;;5.43;99.05;98636.75;7316524;39;20240;31
2023/12/06 05:41:07;;;;;;;5.27;4.77;;;;;;;5.42;99.04;98640.41;7297813;39;20256;31
2023/12/06 05:46:53;;;;;;;6.20;4.70;;;;;;;5.46;98.64;98648.97;7264597;40;20845;31
2023/12/06 05:52:13;;;;;;;7.77;6.00;;;;;;;5.42;98.90;98651.09;7206589;40;20793;31
2023/12/06 05:57:45;;;;;;;5.25;4.70;;;;;;;5.41;98.58;98651.25;7232376;40;20245;31
2023/12/06 06:03:23;;;;;;;8.10;5.90;;;;;;;5.37;98.00;98658.72;7186233;40;20247;31
2023/12/06 06:08:44;;;;;;;6.80;6.10;;;;;;;5.30;97.87;98671.00;7157444;40;20249;31
2023/12/06 06:14:19;;;;;;;7.20;6.45;;;;;;;5.23;97.64;98677.88;7195764;40;20328;31
2023/12/06 06:19:55;;;;;;;8.50;6.10;;;;;;;5.21;97.53;98687.91;7238672;40;20256;31
2023/12/06 06:25:15;;;;;;;6.30;5.10;;;;;;;5.21;97.42;98708.41;7223188;40;20294;31
2023/12/06 06:30:50;;;;;;;6.60;5.20;;;;;;;5.17;96.69;98707.03;7204707;40;20267;31
2023/12/06 06:36:10;;;;;;;6.13;5.40;;;;;;;5.09;95.77;98721.09;7251470;40;20319;31
2023/12/06 06:41:31;;;;;;;5.93;4.67;;;;;;;5.04;94.47;98719.84;7260440;39;22044;31
2023/12/06 06:47:08;;;;;;;6.20;4.90;;;;;;;5.02;94.73;98732.50;7271878;40;20253;31
2023/12/06 06:52:29;;;;;;;5.60;4.60;;;;;;;5.03;94.60;98744.88;7204931;40;20239;31
2023/12/06 06:58:03;;;;;;;5.10;4.37;;;;;;;4.95;93.82;98749.09;7212024;40;20268;31
2023/12/06 07:03:40;;;;;;;6.25;4.90;;;;;;;4.91;93.79;98765.56;7212103;40;20876;31
2023/12/06 07:09:00;;;;;;;5.30;4.20;;;;;;;4.94;94.17;98775.94;7187857;40;20699;31
2023/12/06 07:14:21;;;;;;;6.30;4.60;;;;;;;4.94;94.03;98784.78;7178743;40;20229;31
2023/12/06 07:19:58;;;;;;;5.97;4.80;;;;;;;4.90;93.68;98798.56;7132716;40;20284;31
2023/12/06 07:25:33;;;;;;;6.70;5.50;;;;;;;4.92;94.55;98800.09;7209082;40;20334;31
2023/12/06 07:30:53;;;;;;;6.83;5.63;;;;;;;4.89;94.17;98804.87;7267958;40;20712;31
2023/12/06 07:36:29;;;;;;;7.27;6.43;;;;;;;4.87;94.57;98813.03;7227051;40;20691;31
2023/12/06 07:42:04;;;;;;;9.15;6.05;;;;;;;4.84;93.37;98823.16;7195746;40;20376;31
2023/12/06 07:52:50;;;;;;;8.40;6.97;;;;;;;4.86;94.00;98835.37;7253444;40;20270;31
2023/12/06 07:58:30;;;;;;;8.50;7.00;;;;;;;4.84;94.11;98837.34;7245346;40;20238;31
2023/12/06 08:03:48;;;;;;;8.40;6.80;;;;;;;4.92;94.17;98844.66;7239253;40;20698;31
2023/12/06 08:09:23;;;;;;;7.90;6.95;;;;;;;4.89;93.93;98847.59;7241540;40;20241;31
2023/12/06 08:14:44;;;;;;;8.47;6.60;;;;;;;4.91;94.16;98862.50;7228726;40;20430;31
2023/12/06 08:20:16;;;;;;;7.63;6.40;;;;;;;4.85;93.78;98863.06;7215302;40;21476;31
2023/12/06 08:25:52;;;;;;;7.20;6.23;;;;;;;4.85;93.64;98860.41;7237456;40;20728;31
2023/12/06 08:31:24;;;;;;;9.53;7.60;;;;;;;4.84;93.68;98874.72;7240162;40;20799;31
2023/12/06 08:36:59;;;;;;;8.10;6.67;;;;;;;4.91;94.17;98883.03;7245122;40;20726;31
2023/12/06 08:42:32;;;;;;;7.83;6.40;;;;;;;4.91;93.68;98886.53;7161538;40;20254;31
2023/12/06 08:48:04;;;;;;;7.17;6.43;;;;;;;4.94;93.98;98891.59;7166782;40;20715;31
2023/12/06 08:53:24;;;;;;;6.80;5.95;;;;;;;4.97;93.76;98901.16;6948715;40;20230;31
2023/12/06 08:59:01;;;;;;;7.55;6.20;;;;;;;4.93;93.63;98905.94;7186584;40;20891;31
2023/12/06 09:04:37;;;;;;;7.37;6.07;;;;;;;4.93;93.02;98895.25;7204425;40;21372;31
2023/12/06 09:09:58;;;;;;;6.73;5.70;;;;;;;4.96;92.87;98904.81;7176301;40;20246;31
2023/12/06 09:15:34;;;;;;;7.30;6.00;;;;;;;4.90;92.74;98911.56;7182034;40;20337;31
2023/12/06 09:21:10;;;;;;;6.90;5.90;;;;;;;4.91;92.75;98910.56;7153320;40;20877;31
2023/12/06 09:26:46;;;;;;;7.57;6.17;;;;;;;4.94;92.35;98920.97;7178871;40;20759;31
2023/12/06 09:32:27;;;;;;;5.90;5.30;;;;;;;4.94;91.80;98918.31;7176140;40;20904;31
2023/12/06 09:43:07;;;;;;;6.20;5.60;;;;;;;4.99;92.04;98926.75;7164923;40;20274;31
2023/12/06 09:48:44;;;;;;;5.83;5.00;;;;;;;4.98;91.64;98924.22;7210328;40;20718;31
2023/12/06 09:54:20;;;;;;;6.47;5.53;;;;;;;5.06;91.40;98932.38;7268428;40;20256;31
2023/12/06 09:59:41;;;;;;;5.80;4.80;;;;;;;5.07;91.43;98923.38;7254483;40;20238;31
2023/12/06 10:05:19;;;;;;;6.60;5.40;;;;;;;5.06;91.21;98924.38;7259011;40;20230;31
2023/12/06 10:10:40;;;;;;;5.70;5.10;;;;;;;5.09;91.01;98932.09;7257806;40;21419;31
2023/12/06 10:16:15;;;;;;;10.30;6.05;;;;;;;5.08;91.39;98924.22;7276405;40;20779;31
2023/12/06 10:21:51;;;;;;;5.97;5.33;;;;;;;5.08;91.31;98929.56;7269015;40;20695;31
2023/12/06 10:27:26;;;;;;;6.97;5.50;;;;;;;5.11;91.69;98927.47;7206070;40;20259;31
2023/12/06 10:33:02;;;;;;;7.90;4.90;;;;;;;5.10;90.77;98932.94;7158563;40;20243;31
2023/12/06 10:38:41;;;;;;;6.40;4.70;;;;;;;5.08;90.42;98918.91;7123711;40;20326;31
2023/12/06 10:44:16;;;;;;;8.10;4.80;;;;;;;5.10;90.10;98938.28;7179024;40;20789;31
2023/12/06 10:50:07;;;;;;;5.87;4.40;;;;;;;5.14;89.52;98945.03;7170403;40;20239;31
2023/12/06 10:55:43;;;;;;;10.17;8.97;;;;;;;5.12;89.81;98963.87;7143081;40;20246;31
2023/12/06 11:01:19;;;;;;;5.80;5.00;;;;;;;5.19;89.56;98970.34;7158156;40;20262;31
2023/12/06 11:06:58;;;;;;;5.50;4.90;;;;;;;5.28;89.99;98982.03;7152182;40;20225;31
2023/12/06 11:12:38;;;;;;;5.00;4.50;;;;;;;5.34;89.48;98978.81;7228186;40;20774;31
2023/12/06 11:18:11;;;;;;;5.60;5.00;;;;;;;5.33;89.78;98993.16;7235665;40;20269;31
2023/12/06 11:23:47;;;;;;;8.30;4.90;;;;;;;5.39;89.13;99003.31;7216915;40;20220;31
2023/12/06 11:29:24;;;;;;;5.60;4.70;;;;;;;5.39;88.95;98993.47;7231512;40;20768;31
2023/12/06 11:34:59;;;;;;;6.73;4.60;;;;;;;5.48;88.95;99012.31;7236294;40;20861;31
2023/12/06 11:45:42;;;;;;;5.93;4.83;;;;;;;5.56;88.43;99007.97;7236865;40;20260;31
2023/12/06 11:56:21;;;;;;;5.60;4.05;;;;;;;5.66;87.61;99002.63;7310174;39;20279;31
2023/12/06 12:01:57;;;;;;;5.40;4.40;;;;;;;5.67;87.58;99006.97;7256872;40;20387;31
2023/12/06 12:12:50;;;;;;;7.63;5.27;;;;;;;5.69;88.18;99015.69;7275135;40;20271;31
2023/12/06 12:18:28;;;;;;;6.00;4.85;;;;;;;5.71;87.93;99019.06;7283076;39;20767;31
2023/12/06 12:23:50;;;;;;;6.27;5.37;;;;;;;5.77;87.76;99030.06;7272232;39;21564;31
2023/12/06 12:29:30;;;;;;;16.53;10.67;;;;;;;5.74;88.05;99029.50;7199561;40;20238;31
2023/12/06 12:35:08;;;;;;;8.37;6.23;;;;;;;5.71;87.99;99032.44;7198588;40;20246;31
2023/12/06 12:40:43;;;;;;;7.80;5.70;;;;;;;5.68;88.52;99032.72;7162259;40;20243;31
2023/12/06 12:46:21;;;;;;;9.20;5.40;;;;;;;5.69;88.09;99031.75;7193742;40;20879;31
2023/12/06 12:51:57;;;;;;;8.60;5.85;;;;;;;5.65;88.50;99027.66;7231247;40;20237;31
2023/12/06 12:57:31;;;;;;;8.80;6.10;;;;;;;5.68;87.99;99046.94;7235241;40;20687;31
2023/12/06 13:03:07;;;;;;;6.00;5.10;;;;;;;5.65;88.35;99038.34;7223881;40;20772;31
2023/12/06 13:08:44;;;;;;;7.83;5.63;;;;;;;5.69;88.67;99043.28;7165054;40;20466;31
2023/12/06 13:14:06;;;;;;;9.02;5.76;;;;;;;5.71;88.74;99041.31;7141149;40;20254;31
2023/12/06 13:19:26;;;;;;;8.50;6.15;;;;;;;5.72;88.51;99045.66;7161848;40;20720;31
2023/12/06 13:55:26;;;;;;;17.33;10.17;;;;;;;5.80;88.94;99061.00;7343495;39;20252;31
2023/12/06 14:00:46;;;;;;;11.75;8.05;;;;;;;5.86;90.25;99071.16;7237009;40;20261;31
2023/12/06 14:06:06;;;;;;;7.45;6.15;;;;;;;5.86;89.41;99074.72;7236809;40;20887;31
2023/12/06 14:17:11;;;;;;;9.93;6.80;;;;;;;5.87;89.16;99078.22;7260512;40;20310;31
2023/12/06 14:27:36;;;;;;;9.43;6.43;;;;;;;5.88;89.52;99085.25;7296172;39;20693;31
2023/12/06 14:33:12;;;;;;;9.90;6.60;;;;;;;5.87;89.46;99100.47;7320931;39;20823;31
2023/12/06 14:38:33;;;;;;;14.00;6.13;;;;;;;5.93;89.26;99101.72;7281876;40;20775;31
2023/12/06 14:44:08;;;;;;;7.55;5.80;;;;;;;5.91;90.02;99102.88;7258620;40;20409;31
2023/12/06 14:49:44;;;;;;;8.17;6.43;;;;;;;5.85;89.73;99117.59;7200966;40;20713;31
2023/12/06 14:55:05;;;;;;;8.27;6.10;;;;;;;5.81;89.13;99116.19;7178508;40;20751;31
2023/12/06 15:00:25;;;;;;;7.27;6.33;;;;;;;5.84;89.61;99122.09;7199485;40;20702;31
2023/12/06 15:06:00;;;;;;;10.50;5.50;;;;;;;5.84;88.80;99131.94;7245391;40;20287;31
2023/12/06 15:11:18;;;;;;;6.33;5.03;;;;;;;5.82;89.45;99139.28;7215208;40;20782;31
2023/12/06 15:16:38;;;;;;;5.87;4.80;;;;;;;5.82;88.70;99142.81;7239365;40;20270;31
2023/12/06 15:22:09;;;;;;;6.40;4.83;;;;;;;5.81;88.64;99149.13;7220248;40;20917;31
2023/12/06 15:27:29;;;;;;;5.45;4.55;;;;;;;5.83;89.64;99167.72;7178474;40;20787;31
2023/12/06 15:32:47;;;;;;;7.10;4.60;;;;;;;5.84;89.43;99174.75;7186874;40;20826;31
2023/12/06 15:38:23;;;;;;;5.43;4.62;;;;;;;5.74;89.12;99173.88;7175598;40;20947;31
2023/12/06 15:43:43;;;;;;;6.50;4.50;;;;;;;5.71;88.51;99198.22;7122633;40;20772;31
2023/12/06 15:49:21;;;;;;;5.70;4.60;;;;;;;5.69;88.71;99202.88;7135720;40;20239;31
2023/12/06 15:54:51;;;;;;;4.40;4.00;;;;;;;5.67;88.16;99210.16;7137908;40;20305;31
2023/12/06 16:00:24;;;;;;;5.77;4.10;;;;;;;5.62;88.17;99215.91;7071021;40;20237;31
2023/12/06 16:05:44;;;;;;;8.70;5.50;;;;;;;5.61;88.50;99226.75;7245841;40;20324;31
2023/12/06 16:11:23;;;;;;;6.00;4.70;;;;;;;5.49;87.98;99231.34;7276431;40;20255;31
2023/12/06 16:16:43;;;;;;;9.80;6.37;;;;;;;5.49;88.31;99246.53;7249149;40;20351;31
2023/12/06 16:22:20;;;;;;;8.90;6.30;;;;;;;5.51;88.87;99252.59;7142953;40;20252;31
2023/12/06 16:27:57;;;;;;;8.40;5.80;;;;;;;5.42;87.86;99248.91;7120557;40;20741;31
2023/12/06 16:33:32;;;;;;;7.25;5.60;;;;;;;5.40;88.16;99265.06;7197837;40;20274;31
2023/12/06 16:38:53;;;;;;;7.10;5.45;;;;;;;5.47;89.04;99288.59;7196593;40;20289;31
2023/12/06 16:49:34;;;;;;;8.80;6.50;;;;;;;5.40;88.71;99314.97;7231126;40;20262;31
2023/12/06 16:54:54;;;;;;;8.75;6.35;;;;;;;5.40;89.09;99302.47;7222710;40;20498;31
2023/12/06 17:05:35;;;;;;;18.30;11.43;;;;;;;5.38;90.03;99307.13;7255730;40;20334;31
2023/12/06 17:15:59;;;;;;;9.00;7.40;;;;;;;5.41;90.04;99338.06;7261298;40;20415;31
2023/12/06 17:21:37;;;;;;;9.07;7.23;;;;;;;5.39;89.74;99340.03;7259837;39;20311;31
2023/12/06 17:26:55;;;;;;;12.50;7.13;;;;;;;5.37;89.87;99348.16;7210363;40;20701;31
2023/12/06 17:32:12;;;;;;;9.50;6.83;;;;;;;5.37;90.41;99355.34;7199085;40;20731;31
2023/12/06 17:37:47;;;;;;;78.60;48.00;;;;;;;5.30;89.64;99365.72;7191453;40;20311;31
2023/12/06 17:43:09;;;;;;;63.75;39.55;;;;;;;5.27;90.00;99368.63;7190036;40;20725;31
2023/12/06 17:48:29;;;;;;;25.77;18.00;;;;;;;5.22;89.72;99373.50;7238748;40;20262;31
2023/12/06 17:54:02;;;;;;;22.50;16.40;;;;;;;5.17;90.50;99365.06;7239121;40;20702;31
2023/12/06 17:59:23;;;;;;;12.25;9.75;;;;;;;5.24;90.74;99371.56;7209375;40;20387;31
2023/12/06 18:04:44;;;;;;;12.43;8.70;;;;;;;5.32;90.52;99382.44;7243730;40;20418;31
2023/12/06 18:10:23;;;;;;;9.80;6.25;;;;;;;5.30;90.09;99389.75;7255880;40;20699;31
2023/12/06 18:15:41;;;;;;;8.30;6.50;;;;;;;5.29;89.98;99398.75;7225112;40;20851;31
2023/12/06 18:21:16;;;;;;;8.33;6.43;;;;;;;5.25;89.87;99396.47;7224169;40;20243;31
2023/12/06 18:26:52;;;;;;;13.50;7.32;;;;;;;5.25;90.15;99409.81;7195172;40;20845;31
2023/12/06 18:37:18;;;;;;;15.20;9.47;;;;;;;5.24;90.05;99416.13;7168207;40;20259;31
2023/12/06 18:42:54;;;;;;;13.43;8.43;;;;;;;5.18;90.05;99411.31;7164838;40;20341;31
2023/12/06 18:48:15;;;;;;;11.10;8.17;;;;;;;5.18;90.55;99424.69;7238139;40;20770;31
2023/12/06 18:53:34;;;;;;;9.53;7.60;;;;;;;5.14;90.09;99421.37;7241684;40;20242;31
2023/12/06 18:59:10;;;;;;;8.33;6.20;;;;;;;5.05;90.11;99421.28;7242864;40;20320;31
2023/12/06 19:04:44;;;;;;;15.15;8.50;;;;;;;4.99;89.98;99415.50;7196147;40;20726;31
2023/12/06 19:10:06;;;;;;;11.27;7.40;;;;;;;4.98;90.49;99426.31;7139594;40;20379;31
2023/12/06 19:15:43;;;;;;;14.80;8.43;;;;;;;4.93;90.36;99429.34;7145311;40;20701;31
2023/12/06 19:21:19;;;;;;;10.93;6.93;;;;;;;4.90;90.20;99432.28;7143213;40;20289;31
2023/12/06 19:32:02;;;;;;;13.63;7.07;;;;;;;4.85;90.56;99428.28;7181768;40;20335;31
2023/12/06 19:42:27;;;;;;;15.70;10.10;;;;;;;4.83;90.41;99432.88;7190756;40;20280;31
2023/12/06 19:48:01;;;;;;;10.40;7.40;;;;;;;4.73;90.33;99431.97;7239623;40;20281;31
2023/12/06 19:58:25;;;;;;;11.03;8.07;;;;;;;4.77;90.82;99433.41;7295554;40;20337;31
2023/12/06 20:03:58;;;;;;;11.10;7.63;;;;;;;4.71;90.53;99425.88;7273626;40;20289;31
2023/12/06 20:09:20;;;;;;;12.87;8.43;;;;;;;4.74;90.28;99437.16;7213674;40;20237;31
2023/12/06 20:14:54;;;;;;;19.35;11.10;;;;;;;4.69;90.47;99436.69;7237722;40;20775;31
2023/12/06 20:20:30;;;;;;;11.47;7.60;;;;;;;4.59;90.46;99425.06;7157941;40;20381;31
2023/12/06 20:26:03;;;;;;;10.20;6.90;;;;;;;4.67;90.74;99437.78;7163011;40;20782;31
2023/12/06 20:41:52;;;;;;;11.83;7.03;;;;;;;4.77;90.70;99431.59;7235734;40;20257;31
2023/12/06 20:47:30;;;;;;;15.98;11.35;;;;;;;4.81;90.54;99424.16;7228716;40;20811;31
2023/12/06 20:52:52;;;;;;;38.70;22.50;;;;;;;4.82;90.89;99425.88;7217362;40;20768;31
2023/12/06 20:58:27;;;;;;;61.35;34.45;;;;;;;4.83;90.73;99441.75;7235372;40;20273;31
2023/12/06 21:08:55;;;;;;;20.97;13.03;;;;;;;4.86;91.12;99438.00;7232540;40;20269;31
2023/12/06 21:14:32;;;;;;;54.10;34.77;;;;;;;4.87;90.58;99434.38;7259424;40;20717;31
2023/12/06 21:19:53;;;;;;;24.75;15.45;;;;;;;4.91;90.78;99438.47;7260167;39;20787;31
2023/12/06 21:25:24;;;;;;;;;;;;;;;;;;;;;
2023/12/06 21:30:48;;;;;;;13.40;7.60;;;;;;;4.85;89.99;99445.16;7267795;40;20253;31
2023/12/06 21:36:27;;;;;;;11.35;8.15;;;;;;;4.82;90.38;99445.41;7242345;40;20723;31
2023/12/06 21:42:02;;;;;;;10.57;7.97;;;;;;;4.78;89.93;99454.63;7199118;40;20373;31
2023/12/06 21:47:49;;;;;;;;;;;;;;;;;;;;;
2023/12/06 21:53:24;;;;;;;12.75;8.15;;;;;;;4.73;90.69;99454.16;7051735;40;20257;31
2023/12/06 22:04:05;;;;;;;10.45;7.40;;;;;;;4.69;90.39;99457.22;7156888;40;20291;31
2023/12/06 22:09:50;;;;;;;9.37;7.40;;;;;;;4.74;90.54;99463.03;7236553;40;20898;31
2023/12/06 22:20:30;;;;;;;10.13;7.67;;;;;;;4.56;90.27;99464.50;7216342;40;20416;31
2023/12/06 22:26:02;;;;;;;9.90;7.00;;;;;;;4.50;90.29;99469.34;7235702;40;20241;31
2023/12/06 22:31:34;;;;;;;13.45;7.55;;;;;;;4.52;90.91;99477.22;7244715;40;20793;31
2023/12/06 22:37:09;;;;;;;10.55;7.30;;;;;;;4.48;91.18;99479.28;7198229;40;20997;31
2023/12/06 22:42:27;;;;;;;10.90;7.73;;;;;;;4.43;90.44;99478.78;7152598;40;20860;31
2023/12/06 22:47:47;;;;;;;11.50;7.20;;;;;;;4.38;90.46;99490.81;7159659;40;20242;31
2023/12/06 22:53:21;;;;;;;12.80;8.60;;;;;;;4.29;91.22;99487.06;7175743;40;20261;31
2023/12/06 22:58:53;;;;;;;13.97;7.90;;;;;;;4.31;91.17;99495.78;7171133;40;20300;31
2023/12/06 23:04:13;;;;;;;12.87;8.17;;;;;;;4.29;91.77;99508.41;7125004;40;20867;31
2023/12/06 23:09:50;;;;;;;12.20;9.17;;;;;;;4.25;91.63;99503.41;7164132;40;20873;31
2023/12/06 23:15:08;;;;;;;12.43;8.57;;;;;;;4.28;91.98;99500.50;7138713;40;20709;31
2023/12/06 23:20:23;;;;;;;12.15;9.10;;;;;;;4.31;91.83;99501.09;6958779;40;20235;31
2023/12/06 23:25:59;;;;;;;13.60;8.65;;;;;;;4.33;92.19;99509.00;7191819;40;20873;31
2023/12/06 23:31:19;;;;;;;16.77;8.97;;;;;;;4.28;92.27;99514.69;7246601;40;20901;31
2023/12/06 23:36:55;;;;;;;11.85;9.10;;;;;;;4.24;92.01;99515.91;7252553;40;20252;31
2023/12/06 23:42:29;;;;;;;13.30;8.90;;;;;;;4.27;92.45;99520.13;7188387;40;20718;31
2023/12/06 23:47:49;;;;;;;13.17;9.63;;;;;;;4.29;92.01;99521.75;7129050;40;20974;31
2023/12/06 23:53:25;;;;;;;17.25;10.50;;;;;;;4.22;92.86;99525.84;7160249;40;20256;31
2023/12/06 23:58:59;;;;;;;15.60;10.65;;;;;;;4.25;93.00;99520.28;7136515;40;20781;31
